createdAt,value
2019-05-26T00:02:25.173Z,96626.45
2019-05-26T00:04:56.289Z,96625.27
2019-05-26T00:07:30.508Z,96621.94
2019-05-26T00:10:00.006Z,96615.72
2019-05-26T00:12:30.991Z,96618.05
2019-05-26T00:15:02.081Z,96619.91
2019-05-26T00:17:45.395Z,96615.44
2019-05-26T00:20:16.562Z,96617.63
2019-05-26T00:22:47.590Z,96619.86
2019-05-26T00:25:18.752Z,96618.48
2019-05-26T00:27:49.856Z,96612.85
2019-05-26T00:30:21.439Z,96614.06
2019-05-26T00:32:52.763Z,96610.20
2019-05-26T00:35:23.830Z,96602.77
2019-05-26T00:37:54.835Z,96608.80
2019-05-26T00:40:27.364Z,96601.39
2019-05-26T00:42:59.433Z,96602.46
2019-05-26T00:45:30.748Z,96601.14
2019-05-26T00:48:01.981Z,96602.61
2019-05-26T00:50:33.077Z,96603.50
2019-05-26T00:53:04.137Z,96601.63
2019-05-26T00:55:35.313Z,96607.80
2019-05-26T00:58:06.509Z,96604.28
2019-05-26T01:00:42.195Z,96608.09
2019-05-26T01:03:14.477Z,96607.64
2019-05-26T01:05:45.517Z,96606.48
2019-05-26T01:08:16.520Z,96608.45
2019-05-26T01:10:47.652Z,96610.05
2019-05-26T01:13:18.729Z,96608.42
2019-05-26T01:15:49.834Z,96607.91
2019-05-26T01:18:20.887Z,96603.23
2019-05-26T01:20:51.912Z,96606.80
2019-05-26T01:23:23.015Z,96601.14
2019-05-26T01:25:54.035Z,96606.79
2019-05-26T01:28:25.091Z,96605.31
2019-05-26T01:30:56.239Z,96602.98
2019-05-26T01:33:27.991Z,96604.09
2019-05-26T01:36:00.231Z,96606.85
2019-05-26T01:38:31.980Z,96611.20
2019-05-26T01:41:03.221Z,96616.45
2019-05-26T01:43:34.260Z,96607.93
2019-05-26T01:46:05.452Z,96616.52
2019-05-26T01:48:36.463Z,96609.19
2019-05-26T01:51:07.525Z,96617.49
2019-05-26T01:53:38.576Z,96612.80
2019-05-26T01:56:09.715Z,96614.94
2019-05-26T01:58:40.705Z,96609.19
2019-05-26T02:01:11.872Z,96612.58
2019-05-26T02:03:42.868Z,96609.56
2019-05-26T02:06:13.882Z,96607.58
2019-05-26T02:08:44.868Z,96609.28
2019-05-26T02:11:15.894Z,96609.06
2019-05-26T02:13:46.887Z,96615.73
2019-05-26T02:16:18.060Z,96608.19
2019-05-26T02:18:50.033Z,96612.14
2019-05-26T02:21:21.058Z,96608.11
2019-05-26T02:23:52.029Z,96616.75
2019-05-26T02:26:23.126Z,96618.23
2019-05-26T02:28:54.104Z,96615.66
2019-05-26T02:31:25.227Z,96619.39
2019-05-26T02:33:56.271Z,96615.50
2019-05-26T02:36:28.582Z,96616.97
2019-05-26T02:39:02.740Z,96619.93
2019-05-26T02:41:33.383Z,96617.42
2019-05-26T02:44:04.657Z,96610.69
2019-05-26T02:46:35.679Z,96612.44
2019-05-26T02:49:06.814Z,96609.93
2019-05-26T02:51:37.889Z,96610.02
2019-05-26T02:54:09.134Z,96616.55
2019-05-26T02:56:40.927Z,96612.08
2019-05-26T02:59:12.034Z,96620.88
2019-05-26T03:02:00.784Z,96612.21
2019-05-26T03:04:16.133Z,96617.58
2019-05-26T03:06:49.855Z,96619.27
2019-05-26T03:09:23.898Z,96621.53
2019-05-26T03:11:56.867Z,96614.58
2019-05-26T03:14:30.869Z,96608.20
2019-05-26T03:17:03.241Z,96605.78
2019-05-26T03:19:36.011Z,96611.73
2019-05-26T03:22:07.115Z,96612.09
2019-05-26T03:24:41.247Z,96610.77
2019-05-26T03:27:12.366Z,96614.45
2019-05-26T03:29:43.446Z,96611.88
2019-05-26T03:32:14.605Z,96614.06
2019-05-26T03:34:45.623Z,96614.36
2019-05-26T03:37:16.730Z,96612.23
2019-05-26T03:39:48.021Z,96615.08
2019-05-26T03:42:19.279Z,96616.94
2019-05-26T03:44:50.338Z,96615.38
2019-05-26T03:47:21.384Z,96610.48
2019-05-26T03:49:52.362Z,96612.76
2019-05-26T03:52:23.483Z,96609.31
2019-05-26T03:54:54.466Z,96610.70
2019-05-26T03:57:25.507Z,96616.55
2019-05-26T03:59:56.540Z,96616.70
2019-05-26T04:02:27.626Z,96615.98
2019-05-26T04:04:59.869Z,96617.95
2019-05-26T04:07:31.028Z,96618.46
2019-05-26T04:10:05.171Z,96621.46
2019-05-26T04:12:34.752Z,96628.44
2019-05-26T04:15:06.222Z,96629.03
2019-05-26T04:17:37.249Z,96628.73
2019-05-26T04:20:09.194Z,96627.34
2019-05-26T04:22:40.326Z,96628.30
2019-05-26T04:25:11.526Z,96635.80
2019-05-26T04:27:42.539Z,96630.88
2019-05-26T04:30:13.785Z,96631.38
2019-05-26T04:32:44.839Z,96630.94
2019-05-26T04:35:16.100Z,96626.09
2019-05-26T04:37:47.136Z,96625.09
2019-05-26T04:40:26.441Z,96626.26
2019-05-26T04:42:51.085Z,96626.18
2019-05-26T04:45:22.189Z,96627.62
2019-05-26T04:47:53.401Z,96626.55
2019-05-26T04:50:24.662Z,96628.59
2019-05-26T04:53:06.090Z,96632.63
2019-05-26T04:55:28.476Z,96635.19
2019-05-26T04:58:00.030Z,96636.59
2019-05-26T05:00:31.737Z,96636.22
2019-05-26T05:03:02.933Z,96639.37
2019-05-26T05:05:34.065Z,96639.45
2019-05-26T05:08:05.270Z,96638.27
2019-05-26T05:10:42.322Z,96643.25
2019-05-26T05:13:09.205Z,96647.81
2019-05-26T05:15:40.249Z,96646.34
2019-05-26T05:18:11.423Z,96650.38
2019-05-26T05:20:42.815Z,96649.55
2019-05-26T05:23:13.839Z,96655.67
2019-05-26T05:25:45.123Z,96656.27
2019-05-26T05:28:16.326Z,96651.62
2019-05-26T05:30:47.389Z,96656.53
2019-05-26T05:33:18.421Z,96662.05
2019-05-26T05:35:49.540Z,96659.97
2019-05-26T05:38:20.549Z,96661.73
2019-05-26T05:40:59.690Z,96659.59
2019-05-26T05:43:24.334Z,96663.02
2019-05-26T05:45:55.376Z,96661.64
2019-05-26T05:48:26.376Z,96664.13
2019-05-26T05:50:57.468Z,96658.74
2019-05-26T05:53:28.474Z,96668.41
2019-05-26T05:56:00.162Z,96667.86
2019-05-26T05:58:31.412Z,96673.53
2019-05-26T06:01:02.467Z,96671.73
2019-05-26T06:03:33.461Z,96668.70
2019-05-26T06:06:04.574Z,96669.41
2019-05-26T06:08:36.759Z,96667.98
2019-05-26T06:11:16.600Z,96668.42
2019-05-26T06:13:40.578Z,96669.19
2019-05-26T06:16:11.999Z,96661.52
2019-05-26T06:18:43.000Z,96667.38
2019-05-26T06:21:14.115Z,96670.80
2019-05-26T06:23:45.226Z,96671.58
2019-05-26T06:26:16.343Z,96676.37
2019-05-26T06:28:47.420Z,96668.36
2019-05-26T06:31:18.548Z,96670.27
2019-05-26T06:33:49.643Z,96670.55
2019-05-26T06:36:21.163Z,96668.81
2019-05-26T06:38:52.238Z,96671.83
2019-05-26T06:41:32.861Z,96673.94
2019-05-26T06:43:56.991Z,96664.14
2019-05-26T06:46:28.013Z,96670.98
2019-05-26T06:49:00.137Z,96669.53
2019-05-26T06:51:31.975Z,96667.34
2019-05-26T06:54:03.248Z,96667.98
2019-05-26T06:56:34.360Z,96666.38
2019-05-26T06:59:05.897Z,96670.52
2019-05-26T07:01:36.919Z,96668.72
2019-05-26T07:04:07.973Z,96665.14
2019-05-26T07:06:39.000Z,96672.95
2019-05-26T07:09:09.988Z,96667.22
2019-05-26T07:11:55.600Z,96665.63
2019-05-26T07:14:13.686Z,96670.47
2019-05-26T07:16:44.881Z,96668.23
2019-05-26T07:19:15.893Z,96669.76
2019-05-26T07:21:46.987Z,96668.00
2019-05-26T07:24:18.007Z,96670.80
2019-05-26T07:26:49.068Z,96671.96
2019-05-26T07:29:23.171Z,96673.19
2019-05-26T07:31:54.265Z,96679.39
2019-05-26T07:34:25.442Z,96676.70
2019-05-26T07:36:56.514Z,96675.48
2019-05-26T07:39:27.505Z,96676.36
2019-05-26T07:42:09.278Z,96664.13
2019-05-26T07:44:31.242Z,96661.32
2019-05-26T07:47:02.274Z,96661.77
2019-05-26T07:49:33.263Z,96664.01
2019-05-26T07:52:05.392Z,96661.84
2019-05-26T07:54:36.381Z,96660.45
2019-05-26T07:57:07.505Z,96660.92
2019-05-26T07:59:38.513Z,96665.80
2019-05-26T08:02:09.686Z,96668.04
2019-05-26T08:04:40.664Z,96662.53
2019-05-26T08:07:11.770Z,96659.03
2019-05-26T08:09:42.793Z,96658.68
2019-05-26T08:12:25.452Z,96665.70
2019-05-26T08:14:46.597Z,96666.23
2019-05-26T08:17:17.616Z,96668.93
2019-05-26T08:19:48.616Z,96667.39
2019-05-26T08:22:20.692Z,96664.86
2019-05-26T08:24:51.673Z,96659.34
2019-05-26T08:27:22.703Z,96656.98
2019-05-26T08:29:53.763Z,96653.78
2019-05-26T08:32:24.796Z,96652.02
2019-05-26T08:34:55.983Z,96654.48
2019-05-26T08:37:27.150Z,96652.63
2019-05-26T08:40:17.259Z,96643.91
2019-05-26T08:42:50.539Z,96645.80
2019-05-26T08:45:23.196Z,96642.88
2019-05-26T08:47:54.492Z,96640.54
2019-05-26T08:50:25.664Z,96641.63
2019-05-26T08:52:56.719Z,96645.13
2019-05-26T08:55:27.885Z,96639.60
2019-05-26T08:57:59.009Z,96642.53
2019-05-26T09:00:30.685Z,96640.42
2019-05-26T09:03:01.781Z,96640.92
2019-05-26T09:05:33.616Z,96639.53
2019-05-26T09:08:08.096Z,96643.22
2019-05-26T09:10:38.946Z,96634.95
2019-05-26T09:13:10.230Z,96636.28
2019-05-26T09:15:42.908Z,96633.13
2019-05-26T09:18:14.131Z,96631.53
2019-05-26T09:20:45.281Z,96631.80
2019-05-26T09:23:16.472Z,96642.27
2019-05-26T09:25:47.564Z,96638.02
2019-05-26T09:28:18.789Z,96631.92
2019-05-26T09:30:49.954Z,96634.60
2019-05-26T09:33:21.162Z,96630.91
2019-05-26T09:35:52.636Z,96626.91
2019-05-26T09:38:23.936Z,96621.05
2019-05-26T09:40:55.046Z,96625.33
2019-05-26T09:43:26.196Z,96622.09
2019-05-26T09:45:57.323Z,96623.16
2019-05-26T09:48:28.490Z,96616.99
2019-05-26T09:51:00.906Z,96620.19
2019-05-26T09:53:34.223Z,96615.16
2019-05-26T09:56:05.481Z,96616.48
2019-05-26T09:58:36.580Z,96617.06
2019-05-26T10:01:07.757Z,96618.14
2019-05-26T10:03:38.866Z,96615.73
2019-05-26T10:06:09.963Z,96615.99
2019-05-26T10:08:41.126Z,96613.58
2019-05-26T10:11:12.345Z,96610.95
2019-05-26T10:13:43.616Z,96611.20
2019-05-26T10:16:14.776Z,96613.62
2019-05-26T10:18:46.073Z,96615.47
2019-05-26T10:21:17.213Z,96615.47
2019-05-26T10:23:48.562Z,96610.95
2019-05-26T10:26:19.804Z,96614.40
2019-05-26T10:28:50.974Z,96613.06
2019-05-26T10:31:22.094Z,96610.66
2019-05-26T10:33:53.415Z,96605.83
2019-05-26T10:36:24.730Z,96609.57
2019-05-26T10:38:56.149Z,96612.80
2019-05-26T10:41:28.185Z,96600.78
2019-05-26T10:43:59.534Z,96605.06
2019-05-26T10:46:30.912Z,96608.55
2019-05-26T10:49:02.245Z,96600.58
2019-05-26T10:51:34.618Z,96602.94
2019-05-26T10:54:06.054Z,96597.31
2019-05-26T10:56:37.168Z,96598.94
2019-05-26T10:59:08.669Z,96602.38
2019-05-26T11:01:39.781Z,96602.63
2019-05-26T11:04:11.162Z,96598.33
2019-05-26T11:06:42.323Z,96592.48
2019-05-26T11:09:13.767Z,96596.48
2019-05-26T11:11:44.927Z,96597.60
2019-05-26T11:14:16.426Z,96593.05
2019-05-26T11:16:47.538Z,96593.09
2019-05-26T11:19:18.797Z,96587.23
2019-05-26T11:21:49.913Z,96583.22
2019-05-26T11:24:21.282Z,96586.41
2019-05-26T11:26:52.418Z,96582.41
2019-05-26T11:29:24.216Z,96581.59
2019-05-26T11:31:55.327Z,96579.74
2019-05-26T11:34:26.585Z,96577.85
2019-05-26T11:36:57.713Z,96573.03
2019-05-26T11:39:28.955Z,96574.92
2019-05-26T11:42:12.780Z,96565.55
2019-05-26T11:44:33.827Z,96567.44
2019-05-26T11:47:04.940Z,96560.50
2019-05-26T11:49:36.462Z,96565.02
2019-05-26T11:52:07.557Z,96562.09
2019-05-26T11:54:38.879Z,96562.36
2019-05-26T11:57:10.059Z,96562.65
2019-05-26T11:59:41.265Z,96560.24
2019-05-26T12:02:12.478Z,96563.72
2019-05-26T12:04:43.925Z,96554.66
2019-05-26T12:07:15.082Z,96553.07
2019-05-26T12:09:46.233Z,96552.05
2019-05-26T12:12:17.266Z,96550.70
2019-05-26T12:15:00.670Z,96548.04
2019-05-26T12:17:31.730Z,96541.89
2019-05-26T12:20:05.271Z,96531.20
2019-05-26T12:22:35.871Z,96533.34
2019-05-26T12:25:08.119Z,96527.72
2019-05-26T12:27:39.159Z,96525.03
2019-05-26T12:30:12.565Z,96523.95
2019-05-26T12:32:43.636Z,96525.30
2019-05-26T12:35:15.938Z,96520.52
2019-05-26T12:37:48.515Z,96518.91
2019-05-26T12:40:19.963Z,96514.36
2019-05-26T12:42:51.267Z,96507.68
2019-05-26T12:45:22.410Z,96510.86
2019-05-26T12:47:53.434Z,96507.68
2019-05-26T12:50:24.592Z,96504.75
2019-05-26T12:52:55.690Z,96504.47
2019-05-26T12:55:26.947Z,96499.39
2019-05-26T12:57:58.074Z,96501.02
2019-05-26T13:00:45.260Z,96500.77
2019-05-26T13:03:02.009Z,96494.86
2019-05-26T13:05:33.069Z,96497.81
2019-05-26T13:08:04.237Z,96493.53
2019-05-26T13:10:36.606Z,96496.47
2019-05-26T13:13:07.653Z,96486.31
2019-05-26T13:15:38.652Z,96483.38
2019-05-26T13:18:09.796Z,96480.95
2019-05-26T13:20:40.904Z,96482.05
2019-05-26T13:23:11.986Z,96480.96
2019-05-26T13:25:43.012Z,96487.36
2019-05-26T13:28:15.008Z,96487.11
2019-05-26T13:30:46.064Z,96483.62
2019-05-26T13:33:17.090Z,96477.19
2019-05-26T13:35:48.155Z,96476.91
2019-05-26T13:38:19.182Z,96474.77
2019-05-26T13:40:50.236Z,96467.28
2019-05-26T13:43:21.351Z,96473.16
2019-05-26T13:45:52.379Z,96466.98
2019-05-26T13:48:23.669Z,96463.75
2019-05-26T13:50:54.766Z,96458.13
2019-05-26T13:53:26.000Z,96458.09
2019-05-26T13:55:57.167Z,96464.25
2019-05-26T13:58:28.305Z,96459.16
2019-05-26T14:00:59.324Z,96461.84
2019-05-26T14:03:31.294Z,96463.70
2019-05-26T14:06:02.607Z,96459.12
2019-05-26T14:08:33.736Z,96456.41
2019-05-26T14:11:04.876Z,96457.77
2019-05-26T14:13:37.328Z,96450.34
2019-05-26T14:16:08.466Z,96447.64
2019-05-26T14:18:41.241Z,96442.08
2019-05-26T14:21:12.289Z,96448.75
2019-05-26T14:23:43.429Z,96442.58
2019-05-26T14:26:14.801Z,96440.66
2019-05-26T14:28:45.920Z,96438.52
2019-05-26T14:31:16.941Z,96439.02
2019-05-26T14:33:47.960Z,96438.17
2019-05-26T14:36:19.122Z,96433.63
2019-05-26T14:38:50.252Z,96431.48
2019-05-26T14:41:21.314Z,96423.17
2019-05-26T14:43:52.467Z,96426.95
2019-05-26T14:46:23.549Z,96421.05
2019-05-26T14:48:55.643Z,96424.80
2019-05-26T14:51:26.746Z,96422.41
2019-05-26T14:53:58.048Z,96428.53
2019-05-26T14:56:29.048Z,96428.56
2019-05-26T14:59:00.277Z,96425.83
2019-05-26T15:01:31.519Z,96417.81
2019-05-26T15:04:02.566Z,96414.39
2019-05-26T15:06:33.562Z,96424.52
2019-05-26T15:09:06.478Z,96420.20
2019-05-26T15:11:38.000Z,96409.28
2019-05-26T15:14:09.215Z,96411.69
2019-05-26T15:16:40.204Z,96413.33
2019-05-26T15:19:11.248Z,96406.11
2019-05-26T15:21:42.244Z,96410.94
2019-05-26T15:24:13.271Z,96410.37
2019-05-26T15:26:44.281Z,96408.22
2019-05-26T15:29:15.511Z,96409.81
2019-05-26T15:31:46.549Z,96411.13
2019-05-26T15:34:17.596Z,96402.81
2019-05-26T15:36:48.665Z,96399.64
2019-05-26T15:39:19.877Z,96396.97
2019-05-26T15:41:50.992Z,96396.69
2019-05-26T15:44:22.138Z,96398.04
2019-05-26T15:46:53.218Z,96399.09
2019-05-26T15:49:25.570Z,96387.07
2019-05-26T15:51:56.597Z,96393.73
2019-05-26T15:54:27.739Z,96389.41
2019-05-26T15:57:00.029Z,96387.56
2019-05-26T15:59:31.969Z,96384.89
2019-05-26T16:02:03.237Z,96386.80
2019-05-26T16:04:34.364Z,96383.08
2019-05-26T16:07:05.879Z,96383.13
2019-05-26T16:09:36.934Z,96378.06
2019-05-26T16:12:08.353Z,96384.78
2019-05-26T16:14:39.384Z,96372.82
2019-05-26T16:17:10.391Z,96379.50
2019-05-26T16:19:41.452Z,96377.34
2019-05-26T16:22:12.879Z,96375.23
2019-05-26T16:24:44.024Z,96375.50
2019-05-26T16:27:19.210Z,96370.70
2019-05-26T16:29:48.009Z,96370.97
2019-05-26T16:32:19.193Z,96373.67
2019-05-26T16:34:50.408Z,96373.95
2019-05-26T16:37:21.404Z,96370.23
2019-05-26T16:39:55.825Z,96372.10
2019-05-26T16:42:25.495Z,96370.98
2019-05-26T16:44:56.590Z,96374.79
2019-05-26T16:47:27.573Z,96378.03
2019-05-26T16:49:58.666Z,96369.75
2019-05-26T16:52:29.744Z,96370.57
2019-05-26T16:55:01.989Z,96370.03
2019-05-26T16:57:34.010Z,96364.70
2019-05-26T17:00:07.051Z,96369.27
2019-05-26T17:02:39.370Z,96363.36
2019-05-26T17:05:10.763Z,96369.81
2019-05-26T17:07:41.767Z,96365.02
2019-05-26T17:10:12.976Z,96361.02
2019-05-26T17:12:44.007Z,96362.64
2019-05-26T17:15:15.316Z,96366.09
2019-05-26T17:17:46.341Z,96359.16
2019-05-26T17:20:19.165Z,96354.34
2019-05-26T17:22:50.182Z,96361.60
2019-05-26T17:25:21.392Z,96360.53
2019-05-26T17:27:52.436Z,96357.87
2019-05-26T17:30:24.236Z,96352.53
2019-05-26T17:32:55.345Z,96351.20
2019-05-26T17:35:26.464Z,96353.59
2019-05-26T17:37:57.537Z,96349.34
2019-05-26T17:40:28.656Z,96354.43
2019-05-26T17:42:59.650Z,96351.71
2019-05-26T17:45:32.103Z,96353.88
2019-05-26T17:48:03.129Z,96353.60
2019-05-26T17:50:34.448Z,96353.89
2019-05-26T17:53:05.569Z,96351.49
2019-05-26T17:55:36.609Z,96348.58
2019-05-26T17:58:07.604Z,96350.70
2019-05-26T18:00:40.031Z,96345.65
2019-05-26T18:03:11.133Z,96340.59
2019-05-26T18:05:42.258Z,96336.86
2019-05-26T18:08:13.283Z,96344.06
2019-05-26T18:10:44.500Z,96338.19
2019-05-26T18:13:15.531Z,96336.86
2019-05-26T18:15:46.850Z,96333.42
2019-05-26T18:18:17.853Z,96331.80
2019-05-26T18:20:48.930Z,96328.88
2019-05-26T18:23:19.961Z,96326.48
2019-05-26T18:25:52.076Z,96323.53
2019-05-26T18:28:23.165Z,96329.13
2019-05-26T18:30:54.449Z,96328.36
2019-05-26T18:33:25.536Z,96328.88
2019-05-26T18:35:56.772Z,96325.14
2019-05-26T18:38:27.863Z,96324.04
2019-05-26T18:40:58.963Z,96317.64
2019-05-26T18:43:30.132Z,96320.86
2019-05-26T18:46:02.319Z,96321.38
2019-05-26T18:48:33.314Z,96326.17
2019-05-26T18:51:04.534Z,96321.37
2019-05-26T18:53:35.601Z,96322.16
2019-05-26T18:56:06.709Z,96324.03
2019-05-26T18:58:37.833Z,96329.63
2019-05-26T19:01:09.073Z,96331.22
2019-05-26T19:03:40.752Z,96332.81
2019-05-26T19:06:11.905Z,96325.34
2019-05-26T19:08:42.944Z,96325.31
2019-05-26T19:11:14.257Z,96325.86
2019-05-26T19:13:45.255Z,96330.63
2019-05-26T19:16:16.387Z,96338.06
2019-05-26T19:18:47.475Z,96331.14
2019-05-26T19:21:18.617Z,96333.77
2019-05-26T19:23:49.613Z,96329.45
2019-05-26T19:26:20.745Z,96332.63
2019-05-26T19:28:51.831Z,96332.56
2019-05-26T19:31:23.008Z,96337.37
2019-05-26T19:33:55.096Z,96332.50
2019-05-26T19:36:26.141Z,96332.30
2019-05-26T19:38:57.258Z,96337.63
2019-05-26T19:41:28.301Z,96343.94
2019-05-26T19:43:59.274Z,96342.03
2019-05-26T19:46:30.339Z,96346.59
2019-05-26T19:49:02.337Z,96344.93
2019-05-26T19:51:33.422Z,96346.69
2019-05-26T19:54:04.525Z,96344.58
2019-05-26T19:56:35.660Z,96343.23
2019-05-26T19:59:07.104Z,96352.20
2019-05-26T20:01:38.427Z,96342.51
2019-05-26T20:04:09.451Z,96348.97
2019-05-26T20:06:43.911Z,96344.97
2019-05-26T20:09:14.307Z,96352.16
2019-05-26T20:11:45.436Z,96345.67
2019-05-26T20:14:16.528Z,96344.83
2019-05-26T20:16:47.828Z,96349.11
2019-05-26T20:19:19.014Z,96346.69
2019-05-26T20:21:50.049Z,96343.70
2019-05-26T20:24:21.159Z,96348.73
2019-05-26T20:26:52.209Z,96350.03
2019-05-26T20:29:23.312Z,96347.02
2019-05-26T20:31:55.457Z,96349.09
2019-05-26T20:34:26.461Z,96346.92
2019-05-26T20:36:57.650Z,96344.56
2019-05-26T20:39:28.691Z,96347.73
2019-05-26T20:41:59.809Z,96342.05
2019-05-26T20:44:30.804Z,96344.38
2019-05-26T20:47:02.562Z,96351.02
2019-05-26T20:49:45.027Z,96344.05
2019-05-26T20:52:06.473Z,96340.02
2019-05-26T20:54:37.538Z,96344.22
2019-05-26T20:57:08.654Z,96341.72
2019-05-26T20:59:39.744Z,96344.94
2019-05-26T21:02:10.979Z,96348.50
2019-05-26T21:04:42.999Z,96344.30
2019-05-26T21:07:14.405Z,96348.41
2019-05-26T21:09:45.890Z,96352.09
2019-05-26T21:12:17.995Z,96345.16
2019-05-26T21:14:48.994Z,96343.09
2019-05-26T21:17:20.029Z,96342.77
2019-05-26T21:19:51.294Z,96343.26
2019-05-26T21:22:22.290Z,96339.00
2019-05-26T21:24:53.475Z,96341.66
2019-05-26T21:27:24.500Z,96347.41
2019-05-26T21:29:55.546Z,96335.60
2019-05-26T21:32:26.954Z,96341.45
2019-05-26T21:34:59.632Z,96335.92
2019-05-26T21:37:30.868Z,96336.22
2019-05-26T21:40:02.786Z,96332.97
2019-05-26T21:42:33.769Z,96341.26
2019-05-26T21:45:05.211Z,96334.48
2019-05-26T21:47:36.263Z,96337.69
2019-05-26T21:50:09.446Z,96339.80
2019-05-26T21:52:40.630Z,96333.67
2019-05-26T21:55:12.298Z,96338.57
2019-05-26T21:57:43.289Z,96339.36
2019-05-26T22:00:18.910Z,96336.44
2019-05-26T22:02:51.602Z,96332.70
2019-05-26T22:05:22.779Z,96332.72
2019-05-26T22:07:53.954Z,96334.23
2019-05-26T22:10:25.121Z,96333.18
2019-05-26T22:12:56.123Z,96338.52
2019-05-26T22:15:27.301Z,96339.00
2019-05-26T22:17:58.520Z,96335.11
2019-05-26T22:20:29.547Z,96327.87
2019-05-26T22:23:00.541Z,96331.04
2019-05-26T22:25:32.898Z,96328.84
2019-05-26T22:28:03.975Z,96329.92
2019-05-26T22:30:35.065Z,96326.40
2019-05-26T22:33:06.383Z,96322.48
2019-05-26T22:35:37.413Z,96320.61
2019-05-26T22:38:08.400Z,96325.16
2019-05-26T22:40:39.497Z,96323.53
2019-05-26T22:43:10.514Z,96328.03
2019-05-26T22:45:41.624Z,96324.74
2019-05-26T22:48:12.624Z,96322.94
2019-05-26T22:50:43.979Z,96323.36
2019-05-26T22:53:14.969Z,96318.50
2019-05-26T22:55:46.064Z,96310.73
2019-05-26T22:58:17.070Z,96314.06
2019-05-26T23:00:48.251Z,96315.12
2019-05-26T23:03:19.236Z,96312.74
2019-05-26T23:05:50.285Z,96307.41
2019-05-26T23:08:22.227Z,96304.01
2019-05-26T23:10:53.379Z,96304.16
2019-05-26T23:13:24.357Z,96299.09
2019-05-26T23:15:55.546Z,96303.00
2019-05-26T23:18:26.546Z,96297.13
2019-05-26T23:20:57.736Z,96297.73
2019-05-26T23:23:28.737Z,96296.01
2019-05-26T23:25:59.874Z,96300.31
2019-05-26T23:28:30.867Z,96300.25
2019-05-26T23:31:02.975Z,96300.12
2019-05-26T23:33:34.048Z,96298.31
2019-05-26T23:36:05.178Z,96296.96
2019-05-26T23:38:36.194Z,96298.52
2019-05-26T23:41:07.238Z,96289.01
2019-05-26T23:43:39.208Z,96291.90
2019-05-26T23:46:10.349Z,96288.20
2019-05-26T23:48:41.329Z,96281.81
2019-05-26T23:51:12.480Z,96279.20
2019-05-26T23:53:44.507Z,96279.73
2019-05-26T23:56:15.688Z,96271.34
2019-05-26T23:58:46.684Z,96268.23
